Time;durP1;ratioP1;P1;durP2;ratioP2;P2;SDS_P1;SDS_P2;PMS_P1;PMS_P2;Temp;Humidity;BMP_temperature;BMP_pressure;BME280_temperature;BME280_humidity;BME280_pressure;Samples;Min_cycle;Max_cycle;Signal;HPM_P1;HPM_P2
2022/07/21 00:00:36;;;;;;;7.43;2.60;;;;;;;29.36;25.15;98830.09;4487321;31;20119;-78
2022/07/21 00:03:01;;;;;;;7.50;2.10;;;;;;;29.37;25.14;98826.31;4486172;32;20470;-79
2022/07/21 00:05:30;;;;;;;9.77;2.45;;;;;;;29.37;24.88;98831.75;4486295;32;20084;-79
2022/07/21 00:07:56;;;;;;;7.65;2.40;;;;;;;29.36;24.95;98834.66;4487546;31;20092;-79
2022/07/21 00:10:23;;;;;;;6.70;2.00;;;;;;;29.25;25.07;98838.00;4487643;31;20093;-79
2022/07/21 00:12:49;;;;;;;7.95;2.22;;;;;;;29.33;25.02;98832.38;4486320;32;20109;-80
2022/07/21 00:15:17;;;;;;;5.62;1.90;;;;;;;29.33;25.05;98832.38;4486059;32;20133;-79
2022/07/21 00:17:42;;;;;;;;;;;;;;;29.33;25.05;98835.91;4487514;31;20088;-79
2022/07/21 00:20:09;;;;;;;6.55;2.10;;;;;;;29.37;24.94;98836.34;4486953;31;20351;-79
2022/07/21 00:22:34;;;;;;;8.85;2.40;;;;;;;29.31;25.09;98834.47;4486170;32;20093;-79
2022/07/21 00:25:00;;;;;;;8.45;2.10;;;;;;;29.35;25.14;98841.16;4486309;32;20119;-78
2022/07/21 00:27:25;;;;;;;8.48;2.65;;;;;;;29.29;25.21;98836.53;4487570;31;20131;-79
2022/07/21 00:29:51;;;;;;;5.10;1.90;;;;;;;29.25;25.12;98838.81;4486273;32;20130;-79
2022/07/21 00:32:17;;;;;;;8.63;2.60;;;;;;;29.22;25.19;98841.91;4486324;32;20096;-79
2022/07/21 00:34:43;;;;;;;8.35;2.55;;;;;;;29.18;25.27;98833.34;4486219;32;20080;-79
2022/07/21 00:37:09;;;;;;;5.93;2.17;;;;;;;29.23;25.32;98840.91;4486159;32;20141;-79
2022/07/21 00:39:35;;;;;;;7.68;2.65;;;;;;;29.20;25.53;98839.41;4487098;31;20105;-79
2022/07/21 00:42:01;;;;;;;10.02;2.30;;;;;;;29.26;25.48;98842.34;4487106;31;20096;-79
2022/07/21 00:44:27;;;;;;;6.00;2.20;;;;;;;29.27;25.46;98839.44;4485960;32;20460;-79
2022/07/21 00:46:53;;;;;;;6.25;2.40;;;;;;;29.24;25.40;98847.97;4487104;31;20103;-79
2022/07/21 00:49:20;;;;;;;8.85;2.47;;;;;;;29.12;25.54;98841.44;4486149;32;20124;-79
2022/07/21 00:51:46;;;;;;;9.30;2.33;;;;;;;29.18;26.31;98852.34;4485864;32;20171;-79
2022/07/21 00:54:13;;;;;;;9.15;2.50;;;;;;;28.91;27.03;98847.81;4485974;32;20096;-79
2022/07/21 00:56:38;;;;;;;5.30;1.90;;;;;;;29.00;26.77;98842.00;4485742;32;20419;-79
2022/07/21 00:59:03;;;;;;;8.55;2.40;;;;;;;28.97;26.81;98839.69;4486974;31;20119;-79
2022/07/21 01:01:29;;;;;;;6.97;2.12;;;;;;;28.98;26.47;98844.09;4486962;31;20092;-79
2022/07/21 01:03:54;;;;;;;7.05;2.60;;;;;;;28.95;26.32;98840.94;4486833;31;20103;-79
2022/07/21 01:06:24;;;;;;;6.10;2.20;;;;;;;28.87;26.46;98844.66;4485739;32;20378;-79
2022/07/21 01:08:50;;;;;;;7.18;2.40;;;;;;;28.89;26.93;98850.72;4486964;31;20104;-79
2022/07/21 01:11:16;;;;;;;6.20;2.20;;;;;;;28.74;27.33;98852.72;4472728;32;20155;-78
2022/07/21 01:13:41;;;;;;;6.43;2.37;;;;;;;28.74;27.42;98852.72;4486947;31;20096;-78
2022/07/21 01:16:08;;;;;;;7.25;2.40;;;;;;;28.69;27.64;98861.47;4486626;31;20341;-79
2022/07/21 01:18:33;;;;;;;9.93;2.80;;;;;;;28.56;27.08;98854.06;4486821;31;20123;-79
2022/07/21 01:21:03;;;;;;;10.00;2.40;;;;;;;28.60;26.90;98843.66;4485563;32;20105;-78
2022/07/21 01:23:28;;;;;;;7.28;2.22;;;;;;;28.76;26.64;98850.63;4486657;31;20109;-79
2022/07/21 01:25:54;;;;;;;9.38;2.45;;;;;;;28.65;26.84;98843.91;4485481;32;20093;-79
2022/07/21 01:28:19;;;;;;;6.40;2.22;;;;;;;28.58;26.97;98843.84;4472320;32;20147;-79
2022/07/21 01:30:45;;;;;;;6.35;2.40;;;;;;;28.60;27.04;98846.38;4486571;31;20100;-78
2022/07/21 01:33:10;;;;;;;7.93;2.30;;;;;;;28.60;27.05;98841.78;4484702;32;20088;-79
2022/07/21 01:35:35;;;;;;;6.12;2.28;;;;;;;28.60;26.97;98839.06;4486772;32;20100;-78
2022/07/21 01:38:01;;;;;;;6.12;2.30;;;;;;;28.63;26.96;98835.16;4485676;32;20139;-79
2022/07/21 01:43:10;;;;;;;7.45;2.35;;;;;;;28.56;27.17;98840.50;4486640;32;20249;-79
2022/07/21 01:45:36;;;;;;;7.53;2.40;;;;;;;28.58;27.04;98843.03;4485237;32;20456;-79
2022/07/21 01:48:02;;;;;;;8.27;2.40;;;;;;;28.59;27.13;98839.28;4486475;31;20092;-79
2022/07/21 01:50:27;;;;;;;7.25;2.42;;;;;;;28.58;27.25;98834.91;4486299;32;20092;-79
2022/07/21 01:52:54;;;;;;;10.30;2.58;;;;;;;28.57;27.38;98842.19;4486396;31;20072;-79
2022/07/21 01:55:21;;;;;;;8.02;2.40;;;;;;;28.56;27.34;98839.69;4486263;31;20080;-79
2022/07/21 01:57:46;;;;;;;7.43;2.47;;;;;;;28.56;27.39;98839.69;4486294;31;20142;-79
2022/07/21 02:00:12;;;;;;;6.87;2.50;;;;;;;28.56;27.30;98840.50;4486162;31;20092;-79
2022/07/21 02:02:37;;;;;;;7.93;2.78;;;;;;;28.54;27.43;98842.59;4486186;31;20096;-79
2022/07/21 02:05:03;;;;;;;7.95;2.60;;;;;;;28.48;27.38;98840.63;4484854;32;20087;-79
2022/07/21 02:07:28;;;;;;;7.87;2.30;;;;;;;28.46;27.46;98841.87;4486166;31;20115;-79
2022/07/21 02:09:54;;;;;;;6.85;2.33;;;;;;;28.47;27.45;98846.25;4486089;31;20116;-79
2022/07/21 02:12:19;;;;;;;7.35;2.70;;;;;;;28.47;27.42;98846.25;4485946;31;20183;-77
2022/07/21 02:14:45;;;;;;;8.30;2.40;;;;;;;28.46;27.13;98845.41;4484743;32;20088;-79
2022/07/21 02:17:10;;;;;;;6.62;2.50;;;;;;;28.52;26.99;98841.94;4485757;31;20107;-78
2022/07/21 02:19:35;;;;;;;8.80;2.37;;;;;;;28.50;27.11;98845.88;4485937;32;20092;-79
2022/07/21 02:22:01;;;;;;;8.57;2.40;;;;;;;28.51;27.08;98844.81;4484815;32;20119;-78
2022/07/21 02:24:26;;;;;;;6.93;2.53;;;;;;;28.54;26.77;98849.87;4484933;32;20352;-79
2022/07/21 02:26:52;;;;;;;8.55;2.40;;;;;;;28.46;26.48;98848.13;4484995;32;20120;-79
2022/07/21 02:29:17;;;;;;;7.45;2.60;;;;;;;28.36;26.51;98848.47;4484793;32;20441;-79
2022/07/21 02:31:42;;;;;;;8.73;2.70;;;;;;;28.43;26.41;98851.22;4486111;31;20084;-79
2022/07/21 02:34:08;;;;;;;7.18;2.20;;;;;;;28.51;26.72;98859.25;4485989;31;20485;-79
2022/07/21 02:36:34;;;;;;;8.35;2.40;;;;;;;28.55;26.99;98851.53;4485854;31;20119;-79
2022/07/21 02:39:00;;;;;;;8.23;2.35;;;;;;;28.53;27.21;98851.78;4484498;32;20082;-79
2022/07/21 02:41:25;;;;;;;6.95;2.50;;;;;;;28.53;27.42;98849.06;4484362;32;20088;-80
2022/07/21 02:43:50;;;;;;;6.78;2.30;;;;;;;28.52;27.37;98851.97;4486942;31;20088;-79
2022/07/21 02:46:16;;;;;;;11.63;2.20;;;;;;;28.50;27.14;98856.72;4487953;31;20081;-79
2022/07/21 02:48:41;;;;;;;6.43;2.60;;;;;;;28.54;27.09;98858.84;4486657;32;20389;-79
2022/07/21 02:51:07;;;;;;;9.35;2.50;;;;;;;28.47;27.15;98848.97;4487803;32;20355;-80
2022/07/21 02:53:32;;;;;;;6.37;2.10;;;;;;;28.45;27.14;98846.44;4487910;32;20084;-79
2022/07/21 02:55:58;;;;;;;8.32;2.60;;;;;;;28.44;27.14;98850.19;4487696;31;20150;-79
2022/07/21 02:58:28;;;;;;;7.62;2.47;;;;;;;28.44;27.15;98850.19;4487873;31;20105;-79
2022/07/21 03:00:56;;;;;;;7.22;2.53;;;;;;;28.43;27.05;98849.38;4486737;32;20092;-78
2022/07/21 03:03:24;;;;;;;8.30;2.80;;;;;;;28.40;27.06;98851.63;4486665;32;20075;-78
2022/07/21 03:05:49;;;;;;;8.00;2.72;;;;;;;28.41;27.26;98861.44;4486612;32;20131;-78
2022/07/21 03:08:16;;;;;;;8.80;2.95;;;;;;;28.39;27.42;98850.78;4486549;32;20100;-77
2022/07/21 03:10:42;;;;;;;8.32;2.65;;;;;;;28.41;27.39;98853.28;4487879;31;20156;-78
2022/07/21 03:13:07;;;;;;;9.88;3.20;;;;;;;28.41;27.40;98856.88;4473361;32;20092;-78
2022/07/21 03:15:33;;;;;;;8.88;3.00;;;;;;;28.36;27.33;98850.34;4487616;31;20116;-78
2022/07/21 03:17:59;;;;;;;10.27;3.25;;;;;;;28.30;27.44;98851.97;4486538;32;20147;-77
2022/07/21 03:20:26;;;;;;;11.90;3.20;;;;;;;28.47;27.33;98849.78;4487660;31;20104;-78
2022/07/21 03:22:52;;;;;;;8.82;2.90;;;;;;;28.50;27.30;98846.69;4473532;32;20088;-78
2022/07/21 03:25:18;;;;;;;8.30;2.95;;;;;;;28.56;27.29;98840.50;4487868;31;20093;-79
2022/07/21 03:27:44;;;;;;;8.40;2.78;;;;;;;28.58;27.48;98849.28;4486590;32;20100;-79
2022/07/21 03:30:11;;;;;;;8.20;2.85;;;;;;;28.60;27.63;98847.19;4486573;32;20084;-79
2022/07/21 03:32:37;;;;;;;8.80;3.03;;;;;;;28.63;27.85;98848.69;4486383;32;20093;-79
2022/07/21 03:35:04;;;;;;;9.02;2.90;;;;;;;28.68;27.72;98846.22;4487457;31;20147;-79
2022/07/21 03:37:29;;;;;;;10.57;3.45;;;;;;;28.69;27.74;98847.06;4487591;31;20133;-79
2022/07/21 03:39:55;;;;;;;9.95;3.10;;;;;;;28.79;27.47;98850.25;4486263;32;20131;-79
2022/07/21 03:42:21;;;;;;;8.45;3.22;;;;;;;28.79;27.23;98845.66;4486357;32;20073;-79
2022/07/21 03:44:46;;;;;;;9.00;2.90;;;;;;;28.83;27.38;98844.22;4486339;32;20471;-79
2022/07/21 03:47:12;;;;;;;8.20;3.10;;;;;;;28.90;27.54;98855.13;4487589;31;20088;-79
2022/07/21 03:49:37;;;;;;;9.77;2.97;;;;;;;28.94;27.58;98855.56;4487572;31;20119;-79
2022/07/21 03:52:03;;;;;;;8.73;2.72;;;;;;;28.97;27.64;98850.53;4487399;31;20080;-79
2022/07/21 03:54:28;;;;;;;8.25;3.17;;;;;;;29.03;27.72;98854.31;4486869;32;20140;-80
2022/07/21 03:56:54;;;;;;;7.43;2.83;;;;;;;29.09;27.78;98858.97;4487403;31;20466;-79
2022/07/21 03:59:19;;;;;;;8.52;2.95;;;;;;;29.17;27.85;98855.28;4487477;31;20174;-79
2022/07/21 04:01:44;;;;;;;8.00;2.87;;;;;;;29.25;27.99;98865.13;4486201;32;20088;-79
2022/07/21 04:04:10;;;;;;;7.93;3.10;;;;;;;29.33;27.94;98864.94;4487373;31;20084;-79
2022/07/21 04:06:35;;;;;;;9.35;3.37;;;;;;;29.40;28.14;98868.53;4473130;32;20384;-79
2022/07/21 04:09:01;;;;;;;8.68;3.17;;;;;;;29.49;28.03;98861.84;4487265;31;20142;-79
2022/07/21 04:11:26;;;;;;;7.40;3.05;;;;;;;29.56;27.91;98870.03;4487353;31;20333;-78
2022/07/21 04:13:52;;;;;;;10.75;3.33;;;;;;;29.65;27.76;98874.22;4487446;31;20115;-79
2022/07/21 04:16:17;;;;;;;8.90;3.00;;;;;;;29.76;27.96;98867.38;4487139;31;20107;-79
2022/07/21 04:18:43;;;;;;;9.65;3.37;;;;;;;29.87;28.28;98874.09;4487236;31;20110;-77
2022/07/21 04:21:08;;;;;;;10.10;3.20;;;;;;;29.97;26.96;98869.09;4487356;31;20101;-79
2022/07/21 04:23:33;;;;;;;8.27;3.17;;;;;;;30.10;26.89;98876.41;4486994;31;20471;-79
2022/07/21 04:26:00;;;;;;;10.13;3.10;;;;;;;30.15;26.48;98863.88;4487323;31;20444;-79
2022/07/21 04:28:25;;;;;;;8.55;2.87;;;;;;;30.32;26.61;98869.75;4485999;32;20097;-79
2022/07/21 04:30:51;;;;;;;10.50;3.00;;;;;;;30.46;26.96;98865.16;4485928;32;20092;-79
2022/07/21 04:33:16;;;;;;;9.32;3.10;;;;;;;30.62;27.04;98873.91;4487196;31;20122;-79
2022/07/21 04:35:42;;;;;;;9.48;3.37;;;;;;;30.75;27.23;98868.44;4487019;31;20110;-79
2022/07/21 04:38:09;;;;;;;10.40;3.70;;;;;;;30.85;26.49;98870.72;4485971;32;20077;-79
2022/07/21 04:40:35;;;;;;;8.95;2.97;;;;;;;30.96;26.18;98878.25;4487163;32;20107;-79
2022/07/21 04:43:00;;;;;;;10.50;3.12;;;;;;;31.16;25.93;98879.03;4485802;32;20156;-79
2022/07/21 04:45:25;;;;;;;9.18;3.30;;;;;;;31.30;25.31;98868.09;4487138;31;20076;-79
2022/07/21 04:47:54;;;;;;;10.18;3.37;;;;;;;31.36;25.46;98868.06;4486887;32;20114;-79
2022/07/21 04:50:22;;;;;;;9.52;3.20;;;;;;;31.49;24.87;98869.09;4485847;32;20084;-79
2022/07/21 04:52:47;;;;;;;9.07;3.55;;;;;;;31.66;24.70;98869.41;4487075;31;20545;-78
2022/07/21 04:55:13;;;;;;;11.65;3.03;;;;;;;31.77;24.12;98870.59;4486971;31;20099;-78
2022/07/21 04:57:45;;;;;;;10.13;3.05;;;;;;;31.84;24.03;98877.69;4487007;31;20470;-78
2022/07/21 05:00:13;;;;;;;11.02;3.78;;;;;;;31.94;23.64;98872.56;4486931;31;20080;-79
2022/07/21 05:02:39;;;;;;;9.50;3.25;;;;;;;31.92;23.55;98877.41;4485807;32;20471;-79
2022/07/21 05:05:05;;;;;;;9.90;3.40;;;;;;;32.12;23.77;98871.00;4486961;31;20114;-79
2022/07/21 05:07:31;;;;;;;8.55;3.20;;;;;;;32.30;23.89;98868.34;4484377;32;20167;-79
2022/07/21 05:09:58;;;;;;;10.85;3.55;;;;;;;32.54;23.68;98876.72;4486856;31;20432;-79
2022/07/21 05:12:23;;;;;;;;;;;;;;;32.54;24.01;98879.47;4487086;31;20115;-79
2022/07/21 05:14:49;;;;;;;10.70;3.75;;;;;;;32.77;23.75;98867.94;4492968;31;19979;-78
2022/07/21 05:17:14;;;;;;;8.80;3.60;;;;;;;32.72;24.06;98873.22;4481092;31;20080;-76
2022/07/21 05:19:41;;;;;;;10.60;3.30;;;;;;;32.80;24.43;98872.09;4493631;31;20098;-78
2022/07/21 05:22:06;;;;;;;11.23;3.58;;;;;;;32.97;24.96;98864.97;4480591;31;20127;-79
2022/07/21 05:24:32;;;;;;;9.38;3.50;;;;;;;33.12;25.13;98875.56;4493642;31;20089;-79
2022/07/21 05:26:57;;;;;;;9.35;3.72;;;;;;;33.18;25.15;98879.25;4493846;31;20110;-78
2022/07/21 05:29:23;;;;;;;10.85;3.60;;;;;;;33.28;24.63;98877.69;4497087;31;20340;-78
2022/07/21 05:31:48;;;;;;;11.07;3.55;;;;;;;33.35;24.42;98888.50;4502067;31;20116;-81
2022/07/21 05:34:13;;;;;;;8.68;3.47;;;;;;;33.38;25.13;98888.06;4502485;31;20084;-80
2022/07/21 05:36:39;;;;;;;9.38;3.60;;;;;;;33.60;24.73;98882.91;4502338;31;20348;-81
2022/07/21 05:39:05;;;;;;;11.07;3.45;;;;;;;33.55;24.23;98890.13;4502339;31;20458;-81
2022/07/21 05:41:30;;;;;;;10.57;3.95;;;;;;;33.59;24.41;98897.66;4502225;31;20088;-80
2022/07/21 05:43:55;;;;;;;9.75;3.67;;;;;;;33.61;23.69;98894.66;4502278;31;20106;-81
2022/07/21 05:46:21;;;;;;;10.00;3.90;;;;;;;33.63;23.32;98903.50;4502235;31;20084;-80
2022/07/21 05:48:46;;;;;;;9.48;3.42;;;;;;;33.75;23.06;98903.56;4487790;31;20080;-79
2022/07/21 05:51:12;;;;;;;9.15;4.07;;;;;;;33.72;22.77;98907.59;4502126;31;20100;-80
2022/07/21 05:53:37;;;;;;;9.57;3.97;;;;;;;33.87;22.19;98899.81;4502148;31;20133;-80
2022/07/21 05:56:03;;;;;;;10.98;3.80;;;;;;;33.69;22.48;98902.59;4501829;31;20083;-80
2022/07/21 05:58:28;;;;;;;8.55;3.67;;;;;;;33.68;23.03;98901.75;4487629;31;20424;-79
2022/07/21 06:01:12;;;;;;;10.18;4.12;;;;;;;33.79;23.02;98907.50;4502020;31;20440;-78
2022/07/21 06:03:45;;;;;;;9.60;4.03;;;;;;;33.83;22.86;98912.25;4489832;31;20148;-78
2022/07/21 06:06:16;;;;;;;10.13;3.92;;;;;;;33.88;23.12;98906.94;4487608;31;20166;-78
2022/07/21 06:08:42;;;;;;;9.57;4.10;;;;;;;33.97;22.74;98899.22;4487991;31;20169;-79
2022/07/21 06:11:09;;;;;;;9.60;4.17;;;;;;;34.01;22.86;98902.34;4502136;31;20096;-79
2022/07/21 06:13:35;;;;;;;10.38;4.05;;;;;;;34.14;22.81;98893.94;4474451;31;20465;-78
2022/07/21 06:16:00;;;;;;;13.62;4.57;;;;;;;34.09;22.98;98899.25;4501635;31;20080;-78
2022/07/21 06:18:26;;;;;;;9.98;3.95;;;;;;;34.31;22.82;98899.59;4502606;31;20080;-78
2022/07/21 06:20:51;;;;;;;10.38;3.75;;;;;;;34.45;22.22;98902.94;4489188;31;20099;-78
2022/07/21 06:23:17;;;;;;;9.60;3.90;;;;;;;34.44;22.40;98899.38;4488069;31;20155;-78
2022/07/21 06:25:43;;;;;;;11.10;3.95;;;;;;;34.44;22.29;98898.50;4502640;31;20106;-78
2022/07/21 06:28:08;;;;;;;11.52;4.00;;;;;;;34.41;22.69;98901.75;4503334;31;20343;-79
2022/07/21 06:30:34;;;;;;;10.63;3.80;;;;;;;34.42;22.67;98901.50;4503513;31;20151;-79
2022/07/21 06:32:59;;;;;;;8.52;3.62;;;;;;;34.46;22.33;98902.69;4488992;31;20087;-76
2022/07/21 06:35:25;;;;;;;14.00;4.57;;;;;;;34.51;22.13;98903.87;4485432;31;20144;-78
2022/07/21 06:37:50;;;;;;;9.15;3.70;;;;;;;34.58;22.52;98899.16;4489672;31;20076;-78
2022/07/21 06:40:15;;;;;;;9.40;3.70;;;;;;;34.54;22.03;98901.50;4488246;32;20101;-78
2022/07/21 06:42:42;;;;;;;11.07;4.22;;;;;;;34.62;22.24;98892.94;4488133;32;20084;-78
2022/07/21 06:45:07;;;;;;;9.20;3.75;;;;;;;34.60;21.81;98892.34;4473780;32;20771;-78
2022/07/21 06:47:33;;;;;;;11.57;3.78;;;;;;;34.58;21.90;98894.50;4487983;32;20110;-78
2022/07/21 06:50:04;;;;;;;9.27;3.70;;;;;;;34.62;21.96;98897.59;4487925;32;20144;-78
2022/07/21 06:52:30;;;;;;;11.38;3.65;;;;;;;34.64;22.16;98896.28;4474132;32;20153;-78
2022/07/21 06:54:56;;;;;;;9.70;4.10;;;;;;;34.68;21.92;98896.66;4482204;31;20477;-77
2022/07/21 06:57:22;;;;;;;9.70;3.50;;;;;;;34.79;21.85;98893.09;4476814;32;20116;-83
2022/07/21 06:59:47;;;;;;;11.75;3.95;;;;;;;34.80;21.89;98893.91;4487843;32;20137;-80
2022/07/21 07:02:13;;;;;;;11.38;3.55;;;;;;;34.80;22.03;98891.19;4487870;32;20138;-77
2022/07/21 07:04:38;;;;;;;11.15;3.80;;;;;;;34.92;22.42;98900.22;4473440;31;20116;-78
2022/07/21 07:07:04;;;;;;;12.18;3.72;;;;;;;34.79;22.28;98904.03;4466180;32;20092;-78
2022/07/21 07:09:29;;;;;;;11.05;3.92;;;;;;;34.83;22.32;98897.03;4487179;32;20092;-77
2022/07/21 07:12:03;;;;;;;9.20;4.05;;;;;;;34.93;22.06;98901.88;4487402;32;20463;-78
2022/07/21 07:14:29;;;;;;;12.32;3.90;;;;;;;34.89;21.96;98894.38;4487851;31;20416;-78
2022/07/21 07:16:54;;;;;;;11.45;3.70;;;;;;;35.09;21.71;98905.78;4487660;31;20360;-79
2022/07/21 07:19:20;;;;;;;13.05;4.25;;;;;;;34.85;22.08;98897.59;4487771;31;20143;-79
2022/07/21 07:21:45;;;;;;;11.35;4.10;;;;;;;34.88;22.22;98901.75;4487647;31;20111;-79
2022/07/21 07:24:10;;;;;;;15.98;4.50;;;;;;;35.01;22.16;98900.69;4487504;32;20084;-78
2022/07/21 07:26:36;;;;;;;14.45;3.80;;;;;;;34.97;22.14;98897.59;4487616;31;20100;-80
2022/07/21 07:29:01;;;;;;;13.25;4.12;;;;;;;34.99;22.08;98897.34;4487225;31;20112;-79
2022/07/21 07:31:27;;;;;;;10.73;3.92;;;;;;;35.01;22.15;98897.94;4487192;31;20109;-79
2022/07/21 07:33:52;;;;;;;10.10;4.28;;;;;;;35.07;22.22;98899.72;4487665;31;20084;-79
2022/07/21 07:36:18;;;;;;;10.25;3.42;;;;;;;35.16;22.06;98901.03;4487488;31;20088;-79
2022/07/21 07:38:43;;;;;;;10.70;4.00;;;;;;;35.18;21.99;98890.69;4487553;31;20093;-78
2022/07/21 07:41:09;;;;;;;12.80;4.07;;;;;;;35.31;21.95;98897.81;4487581;31;20146;-79
2022/07/21 07:43:34;;;;;;;10.05;4.12;;;;;;;35.24;21.79;98891.62;4487613;31;20080;-79
2022/07/21 07:46:01;;;;;;;13.60;4.20;;;;;;;35.32;21.86;98893.97;4487169;31;20428;-77
2022/07/21 07:48:27;;;;;;;11.32;3.62;;;;;;;35.36;21.67;98897.91;4491636;31;20111;-79
2022/07/21 07:50:52;;;;;;;12.10;3.78;;;;;;;35.44;21.83;98886.53;4487573;32;20107;-78
2022/07/21 07:53:18;;;;;;;10.30;3.80;;;;;;;35.48;21.36;98883.31;4487377;32;20222;-79
2022/07/21 07:55:43;;;;;;;13.93;4.13;;;;;;;35.34;21.69;98886.34;4487353;32;20149;-79
2022/07/21 07:58:09;;;;;;;13.70;4.07;;;;;;;35.38;21.55;98893.00;4487318;32;20491;-79
2022/07/21 08:00:35;;;;;;;10.50;4.00;;;;;;;35.43;21.16;98890.38;4487385;32;20080;-79
2022/07/21 08:03:01;;;;;;;10.50;3.97;;;;;;;35.20;21.82;98882.22;4473384;32;20495;-79
2022/07/21 08:05:26;;;;;;;14.30;4.72;;;;;;;35.28;21.62;98883.75;4487436;32;20072;-79
2022/07/21 08:07:51;;;;;;;11.23;3.78;;;;;;;35.20;21.66;98893.19;4487361;32;20100;-79
2022/07/21 08:10:17;;;;;;;11.87;4.10;;;;;;;35.29;21.20;98888.97;4473133;32;20403;-79
2022/07/21 08:12:42;;;;;;;16.52;4.10;;;;;;;35.16;21.32;98887.31;4487256;32;20135;-79
2022/07/21 08:15:08;;;;;;;13.45;4.15;;;;;;;35.19;21.31;98888.78;4473067;32;20080;-79
2022/07/21 08:17:34;;;;;;;10.70;4.10;;;;;;;35.01;21.54;98884.25;4491769;31;20088;-78
2022/07/21 08:20:00;;;;;;;13.75;4.10;;;;;;;34.79;21.72;98886.78;4475550;31;20118;-78
2022/07/21 08:22:25;;;;;;;11.45;3.90;;;;;;;34.96;21.51;98884.97;4502866;31;20438;-79
2022/07/21 08:24:50;;;;;;;9.57;3.60;;;;;;;34.94;21.86;98878.91;4503041;31;20094;-78
2022/07/21 08:27:16;;;;;;;10.25;3.97;;;;;;;34.84;21.87;98886.91;4503023;31;20103;-79
2022/07/21 08:29:41;;;;;;;11.93;3.78;;;;;;;34.79;22.53;98879.41;4488738;31;20096;-79
2022/07/21 08:32:07;;;;;;;11.38;3.90;;;;;;;34.86;22.14;98880.09;4502950;31;20096;-79
2022/07/21 08:34:32;;;;;;;10.77;3.85;;;;;;;34.86;21.91;98888.31;4503008;31;20102;-79
2022/07/21 08:36:58;;;;;;;11.18;3.72;;;;;;;35.10;22.07;98884.72;4502845;31;20141;-79
2022/07/21 08:39:23;;;;;;;10.40;4.03;;;;;;;35.14;21.25;98878.53;4488596;31;20469;-79
2022/07/21 08:41:51;;;;;;;11.70;3.87;;;;;;;35.22;20.79;98875.44;4501972;31;20117;-77
2022/07/21 08:44:16;;;;;;;9.98;3.70;;;;;;;35.18;21.03;98862.47;4487096;31;20077;-79
2022/07/21 08:46:42;;;;;;;10.43;3.87;;;;;;;35.14;20.87;98869.50;4487089;31;20409;-79
2022/07/21 08:49:09;;;;;;;8.40;3.17;;;;;;;35.12;20.69;98866.97;4487133;31;20080;-79
2022/07/21 08:51:35;;;;;;;10.45;3.90;;;;;;;35.28;21.08;98862.69;4487399;31;20102;-80
2022/07/21 08:54:02;;;;;;;8.53;3.63;;;;;;;35.35;20.88;98863.38;4501760;31;20084;-79
2022/07/21 08:56:28;;;;;;;9.70;3.87;;;;;;;35.33;20.77;98870.16;4500821;31;20467;-79
2022/07/21 08:58:54;;;;;;;8.95;3.60;;;;;;;35.41;20.84;98861.56;4502667;31;20118;-79
2022/07/21 09:01:20;;;;;;;11.80;4.28;;;;;;;35.31;20.87;98861.34;4502722;31;20084;-79
2022/07/21 09:03:45;;;;;;;12.80;3.87;;;;;;;35.37;21.05;98863.97;4502723;31;20450;-79
2022/07/21 09:06:14;;;;;;;11.07;4.37;;;;;;;35.24;21.02;98850.53;4502759;31;20084;-79
2022/07/21 09:08:46;;;;;;;10.95;4.22;;;;;;;35.42;21.15;98850.34;4502728;31;20092;-79
2022/07/21 09:11:17;;;;;;;10.50;3.90;;;;;;;35.48;20.96;98847.72;4502680;31;20084;-79
2022/07/21 09:13:46;;;;;;;10.13;3.80;;;;;;;35.59;20.41;98855.06;4502762;31;20480;-79
2022/07/21 09:16:12;;;;;;;10.75;3.60;;;;;;;35.69;20.73;98844.31;4502504;31;20122;-79
2022/07/21 09:18:48;;;;;;;11.27;3.90;;;;;;;35.72;20.74;98849.31;4502685;31;20084;-79
2022/07/21 09:21:16;;;;;;;9.98;3.75;;;;;;;35.72;20.41;98843.81;4502589;31;20106;-79
2022/07/21 09:23:41;;;;;;;11.75;4.30;;;;;;;35.63;20.54;98848.81;4502313;31;20499;-79
2022/07/21 09:26:07;;;;;;;9.35;3.97;;;;;;;35.63;20.71;98843.34;4502499;31;20116;-79
2022/07/21 09:28:32;;;;;;;9.77;3.70;;;;;;;35.68;20.35;98842.66;4502583;31;20386;-79
2022/07/21 09:31:00;;;;;;;10.77;3.63;;;;;;;35.79;20.60;98833.53;4488078;31;20400;-79
2022/07/21 09:33:25;;;;;;;10.88;3.70;;;;;;;35.88;20.60;98836.69;4488500;31;20189;-79
2022/07/21 09:36:17;;;;;;;8.68;3.40;;;;;;;35.85;20.46;98830.88;4502304;31;20104;-79
2022/07/21 09:38:56;;;;;;;11.30;4.18;;;;;;;35.78;20.18;98831.88;4493457;31;20107;-79
2022/07/21 09:41:23;;;;;;;12.15;3.97;;;;;;;35.93;20.46;98823.09;4488446;31;20088;-79
2022/07/21 09:43:50;;;;;;;9.52;4.05;;;;;;;35.87;20.59;98826.78;4502321;31;20359;-79
2022/07/21 09:46:21;;;;;;;9.07;4.05;;;;;;;35.88;20.02;98827.66;4502252;31;20538;-79
2022/07/21 09:48:52;;;;;;;10.73;3.90;;;;;;;35.75;20.07;98826.03;4502299;31;20114;-79
2022/07/21 09:51:28;;;;;;;9.98;3.70;;;;;;;35.57;20.30;98816.94;4502221;31;20106;-79
2022/07/21 09:53:58;;;;;;;8.60;3.92;;;;;;;35.75;20.46;98812.34;4503319;31;20140;-79
2022/07/21 09:56:25;;;;;;;10.73;3.92;;;;;;;35.66;20.33;98811.91;4504113;31;20088;-79
2022/07/21 09:58:54;;;;;;;10.98;4.20;;;;;;;35.65;20.56;98807.47;4489718;31;20140;-79
2022/07/21 10:01:21;;;;;;;9.30;3.55;;;;;;;35.71;20.54;98806.50;4504102;31;20084;-79
2022/07/21 10:03:50;;;;;;;9.27;3.90;;;;;;;35.82;20.28;98802.88;4504015;31;20432;-79
2022/07/21 10:06:18;;;;;;;9.98;4.15;;;;;;;35.88;20.57;98806.53;4504101;31;20092;-79
2022/07/21 10:08:44;;;;;;;11.57;4.37;;;;;;;35.93;20.59;98800.31;4503936;31;20802;-79
2022/07/21 10:11:10;;;;;;;10.35;4.15;;;;;;;35.99;20.53;98794.66;4503908;31;20159;-79
2022/07/21 10:13:37;;;;;;;9.63;4.20;;;;;;;35.95;20.51;98804.47;4489686;31;20075;-79
2022/07/21 10:16:04;;;;;;;11.20;3.97;;;;;;;35.89;20.65;98800.00;4503853;31;20114;-79
2022/07/21 10:18:39;;;;;;;12.10;3.95;;;;;;;35.95;20.31;98792.66;4503963;31;20170;-79
2022/07/21 10:21:17;;;;;;;12.90;3.97;;;;;;;35.98;20.50;98792.16;4503866;31;20110;-79
2022/07/21 10:23:43;;;;;;;9.52;3.80;;;;;;;35.92;20.61;98783.03;4489455;31;20080;-79
2022/07/21 10:26:10;;;;;;;11.57;4.67;;;;;;;36.02;20.36;98788.66;4489560;31;20393;-79
2022/07/21 10:28:36;;;;;;;10.23;3.78;;;;;;;35.97;20.26;98780.38;4503886;31;20088;-79
2022/07/21 10:31:23;;;;;;;10.67;3.53;;;;;;;35.94;20.58;98786.34;4489448;31;20126;-79
2022/07/21 10:33:48;;;;;;;10.63;4.10;;;;;;;36.00;20.33;98779.84;4504108;31;20076;-79
2022/07/21 10:36:35;;;;;;;10.07;3.90;;;;;;;35.97;20.43;98785.03;4503747;31;20087;-79
2022/07/21 10:39:06;;;;;;;10.48;4.30;;;;;;;36.08;20.12;98780.53;4503849;31;20083;-79
2022/07/21 10:41:39;;;;;;;11.38;4.00;;;;;;;36.00;20.21;98773.56;4503772;31;20109;-79
2022/07/21 10:44:26;;;;;;;10.98;4.40;;;;;;;36.05;20.02;98770.06;4489414;31;20076;-79
2022/07/21 10:47:13;;;;;;;10.87;4.20;;;;;;;36.01;20.49;98775.22;4503713;31;20395;-79
2022/07/21 10:49:46;;;;;;;11.65;4.40;;;;;;;36.02;20.24;98768.66;4503749;31;20151;-79
2022/07/21 10:52:34;;;;;;;9.35;4.05;;;;;;;35.94;20.65;98771.81;4489742;31;20431;-79
2022/07/21 10:55:17;;;;;;;11.38;4.03;;;;;;;36.06;20.31;98768.97;4503629;31;20454;-79
2022/07/21 10:57:43;;;;;;;12.02;4.10;;;;;;;36.00;20.36;98768.06;4503614;31;20091;-79
2022/07/21 11:00:18;;;;;;;;;;;;;;;36.10;20.25;98764.66;4503989;31;20392;-79
2022/07/21 11:02:46;;;;;;;10.20;3.75;;;;;;;36.17;20.23;98759.88;4503728;31;19986;-79
2022/07/21 11:05:12;;;;;;;12.93;4.18;;;;;;;36.05;20.35;98756.38;4503561;31;20092;-79
2022/07/21 11:08:21;;;;;;;14.37;4.40;;;;;;;35.99;20.28;98756.28;4503569;31;20080;-79
2022/07/21 11:10:52;;;;;;;10.70;3.85;;;;;;;36.19;20.13;98747.56;4423357;32;20136;-79
2022/07/21 11:13:22;;;;;;;10.57;4.07;;;;;;;36.30;20.11;98747.72;4423516;32;20109;-79
2022/07/21 11:16:00;;;;;;;12.32;4.20;;;;;;;36.25;19.75;98747.62;4423372;32;20086;-79
2022/07/21 11:18:30;;;;;;;9.98;3.97;;;;;;;36.18;19.94;98747.78;4423344;32;20144;-79
2022/07/21 11:21:16;;;;;;;13.65;3.90;;;;;;;36.27;19.97;98734.50;4420853;32;78681;-79
2022/07/21 11:23:43;;;;;;;12.52;4.05;;;;;;;36.19;20.08;98742.06;4423238;32;20175;-79
2022/07/21 11:26:10;;;;;;;9.82;3.90;;;;;;;36.22;20.12;98743.50;4423276;32;20141;-79
2022/07/21 11:28:36;;;;;;;10.48;3.70;;;;;;;36.44;19.50;98731.72;4410618;32;20136;-79
2022/07/21 11:31:07;;;;;;;10.80;3.77;;;;;;;36.44;19.48;98731.72;4423333;32;20433;-79
2022/07/21 11:33:33;;;;;;;11.73;3.90;;;;;;;36.40;19.56;98734.13;4423304;32;20108;-79